sensor_id;sensor_type;location;lat;lon;timestamp;P1;durP1;ratioP1;P2;durP2;ratioP2
5245;SDS011;54412;51.206;6.888;2022-07-29T00:00:05;3.07;;;1.53;;
5245;SDS011;54412;51.206;6.888;2022-07-29T00:02:34;4.43;;;1.17;;
5245;SDS011;54412;51.206;6.888;2022-07-29T00:05:00;5.70;;;1.40;;
5245;SDS011;54412;51.206;6.888;2022-07-29T00:07:27;4.43;;;1.47;;
5245;SDS011;54412;51.206;6.888;2022-07-29T00:09:52;6.10;;;1.33;;
5245;SDS011;54412;51.206;6.888;2022-07-29T00:12:19;4.47;;;1.50;;
5245;SDS011;54412;51.206;6.888;2022-07-29T00:14:47;5.67;;;1.27;;
5245;SDS011;54412;51.206;6.888;2022-07-29T00:17:12;7.80;;;1.53;;
5245;SDS011;54412;51.206;6.888;2022-07-29T00:19:38;4.17;;;1.37;;
5245;SDS011;54412;51.206;6.888;2022-07-29T00:22:04;4.67;;;1.47;;
5245;SDS011;54412;51.206;6.888;2022-07-29T00:24:30;4.37;;;1.40;;
5245;SDS011;54412;51.206;6.888;2022-07-29T00:26:55;10.03;;;1.63;;
5245;SDS011;54412;51.206;6.888;2022-07-29T00:29:21;8.53;;;1.40;;
5245;SDS011;54412;51.206;6.888;2022-07-29T00:31:47;2.00;;;1.30;;
5245;SDS011;54412;51.206;6.888;2022-07-29T00:34:12;3.10;;;1.37;;
5245;SDS011;54412;51.206;6.888;2022-07-29T00:36:56;1.63;;;1.30;;
5245;SDS011;54412;51.206;6.888;2022-07-29T00:39:22;5.13;;;1.67;;
5245;SDS011;54412;51.206;6.888;2022-07-29T00:41:48;8.90;;;1.50;;
5245;SDS011;54412;51.206;6.888;2022-07-29T00:44:15;4.33;;;1.67;;
5245;SDS011;54412;51.206;6.888;2022-07-29T00:46:41;5.80;;;1.53;;
5245;SDS011;54412;51.206;6.888;2022-07-29T00:49:06;3.83;;;1.77;;
5245;SDS011;54412;51.206;6.888;2022-07-29T00:51:34;7.10;;;1.13;;
5245;SDS011;54412;51.206;6.888;2022-07-29T00:54:02;4.40;;;1.53;;
5245;SDS011;54412;51.206;6.888;2022-07-29T00:56:30;8.57;;;1.77;;
5245;SDS011;54412;51.206;6.888;2022-07-29T00:58:57;14.77;;;2.30;;
5245;SDS011;54412;51.206;6.888;2022-07-29T01:01:24;3.23;;;1.43;;
5245;SDS011;54412;51.206;6.888;2022-07-29T01:03:51;6.43;;;1.53;;
5245;SDS011;54412;51.206;6.888;2022-07-29T01:06:17;4.27;;;1.60;;
5245;SDS011;54412;51.206;6.888;2022-07-29T01:08:45;2.57;;;1.40;;
5245;SDS011;54412;51.206;6.888;2022-07-29T01:11:13;3.47;;;1.33;;
5245;SDS011;54412;51.206;6.888;2022-07-29T01:13:42;5.90;;;1.67;;
5245;SDS011;54412;51.206;6.888;2022-07-29T01:16:13;3.27;;;1.60;;
5245;SDS011;54412;51.206;6.888;2022-07-29T01:18:56;3.60;;;1.53;;
5245;SDS011;54412;51.206;6.888;2022-07-29T01:27:26;6.33;;;1.60;;
5245;SDS011;54412;51.206;6.888;2022-07-29T01:30:24;4.50;;;1.90;;
5245;SDS011;54412;51.206;6.888;2022-07-29T01:32:59;7.83;;;1.80;;
5245;SDS011;54412;51.206;6.888;2022-07-29T01:35:33;9.60;;;2.20;;
5245;SDS011;54412;51.206;6.888;2022-07-29T01:38:08;8.60;;;2.40;;
5245;SDS011;54412;51.206;6.888;2022-07-29T01:43:53;6.20;;;2.40;;
5245;SDS011;54412;51.206;6.888;2022-07-29T01:46:47;6.83;;;1.40;;
5245;SDS011;54412;51.206;6.888;2022-07-29T01:49:18;10.57;;;1.47;;
5245;SDS011;54412;51.206;6.888;2022-07-29T01:52:02;5.67;;;2.00;;
5245;SDS011;54412;51.206;6.888;2022-07-29T01:54:37;3.80;;;1.30;;
5245;SDS011;54412;51.206;6.888;2022-07-29T01:57:09;13.43;;;1.67;;
5245;SDS011;54412;51.206;6.888;2022-07-29T01:59:38;4.93;;;1.40;;
5245;SDS011;54412;51.206;6.888;2022-07-29T02:02:08;8.37;;;2.33;;
5245;SDS011;54412;51.206;6.888;2022-07-29T02:04:38;5.40;;;1.77;;
5245;SDS011;54412;51.206;6.888;2022-07-29T02:07:07;8.60;;;1.70;;
5245;SDS011;54412;51.206;6.888;2022-07-29T02:09:38;8.93;;;1.90;;
5245;SDS011;54412;51.206;6.888;2022-07-29T02:12:06;8.10;;;1.90;;
5245;SDS011;54412;51.206;6.888;2022-07-29T02:14:36;5.37;;;1.93;;
5245;SDS011;54412;51.206;6.888;2022-07-29T02:17:07;8.90;;;2.47;;
5245;SDS011;54412;51.206;6.888;2022-07-29T02:19:34;7.60;;;1.93;;
5245;SDS011;54412;51.206;6.888;2022-07-29T02:22:05;14.97;;;2.90;;
5245;SDS011;54412;51.206;6.888;2022-07-29T02:24:34;6.10;;;2.07;;
5245;SDS011;54412;51.206;6.888;2022-07-29T02:27:02;5.50;;;1.77;;
5245;SDS011;54412;51.206;6.888;2022-07-29T02:29:29;9.43;;;2.40;;
5245;SDS011;54412;51.206;6.888;2022-07-29T02:31:57;3.37;;;1.80;;
5245;SDS011;54412;51.206;6.888;2022-07-29T02:34:25;11.23;;;1.57;;
5245;SDS011;54412;51.206;6.888;2022-07-29T02:36:53;6.83;;;2.10;;
5245;SDS011;54412;51.206;6.888;2022-07-29T02:39:20;2.00;;;1.40;;
5245;SDS011;54412;51.206;6.888;2022-07-29T02:41:51;6.87;;;1.80;;
5245;SDS011;54412;51.206;6.888;2022-07-29T02:44:34;8.77;;;2.00;;
5245;SDS011;54412;51.206;6.888;2022-07-29T02:47:02;7.87;;;2.23;;
5245;SDS011;54412;51.206;6.888;2022-07-29T02:50:04;6.97;;;2.20;;
5245;SDS011;54412;51.206;6.888;2022-07-29T02:52:39;11.40;;;1.80;;
5245;SDS011;54412;51.206;6.888;2022-07-29T02:55:25;9.37;;;1.43;;
5245;SDS011;54412;51.206;6.888;2022-07-29T02:57:59;4.00;;;1.40;;
5245;SDS011;54412;51.206;6.888;2022-07-29T03:00:38;5.13;;;1.63;;
5245;SDS011;54412;51.206;6.888;2022-07-29T03:03:10;4.53;;;1.80;;
5245;SDS011;54412;51.206;6.888;2022-07-29T03:05:40;4.63;;;2.10;;
5245;SDS011;54412;51.206;6.888;2022-07-29T03:08:08;5.30;;;2.13;;
5245;SDS011;54412;51.206;6.888;2022-07-29T03:10:37;11.13;;;1.77;;
5245;SDS011;54412;51.206;6.888;2022-07-29T03:13:07;2.23;;;1.67;;
5245;SDS011;54412;51.206;6.888;2022-07-29T03:15:35;6.70;;;1.80;;
5245;SDS011;54412;51.206;6.888;2022-07-29T03:18:01;6.87;;;2.00;;
5245;SDS011;54412;51.206;6.888;2022-07-29T03:20:28;5.33;;;2.30;;
5245;SDS011;54412;51.206;6.888;2022-07-29T03:22:54;3.30;;;1.80;;
5245;SDS011;54412;51.206;6.888;2022-07-29T03:25:20;6.67;;;2.27;;
5245;SDS011;54412;51.206;6.888;2022-07-29T03:27:46;7.03;;;2.50;;
5245;SDS011;54412;51.206;6.888;2022-07-29T03:30:12;1.97;;;1.80;;
5245;SDS011;54412;51.206;6.888;2022-07-29T03:32:41;10.53;;;1.80;;
5245;SDS011;54412;51.206;6.888;2022-07-29T03:35:07;3.43;;;2.30;;
5245;SDS011;54412;51.206;6.888;2022-07-29T03:37:33;4.07;;;2.10;;
5245;SDS011;54412;51.206;6.888;2022-07-29T03:40:01;4.73;;;2.40;;
5245;SDS011;54412;51.206;6.888;2022-07-29T03:42:32;5.37;;;2.40;;
5245;SDS011;54412;51.206;6.888;2022-07-29T03:45:03;7.90;;;1.83;;
5245;SDS011;54412;51.206;6.888;2022-07-29T03:47:34;2.90;;;2.27;;
5245;SDS011;54412;51.206;6.888;2022-07-29T03:50:06;5.47;;;1.93;;
5245;SDS011;54412;51.206;6.888;2022-07-29T03:52:35;7.73;;;1.97;;
5245;SDS011;54412;51.206;6.888;2022-07-29T03:55:02;12.23;;;1.93;;
5245;SDS011;54412;51.206;6.888;2022-07-29T03:57:29;8.47;;;1.80;;
5245;SDS011;54412;51.206;6.888;2022-07-29T03:59:56;14.43;;;1.97;;
5245;SDS011;54412;51.206;6.888;2022-07-29T04:02:25;8.60;;;2.03;;
5245;SDS011;54412;51.206;6.888;2022-07-29T04:04:51;3.50;;;1.90;;
5245;SDS011;54412;51.206;6.888;2022-07-29T04:07:17;11.10;;;1.60;;
5245;SDS011;54412;51.206;6.888;2022-07-29T04:09:43;6.23;;;2.03;;
5245;SDS011;54412;51.206;6.888;2022-07-29T04:12:09;4.53;;;1.70;;
5245;SDS011;54412;51.206;6.888;2022-07-29T04:14:35;7.97;;;2.57;;
5245;SDS011;54412;51.206;6.888;2022-07-29T04:17:01;6.00;;;1.60;;
5245;SDS011;54412;51.206;6.888;2022-07-29T04:19:28;6.50;;;1.90;;
5245;SDS011;54412;51.206;6.888;2022-07-29T04:21:55;11.10;;;2.07;;
5245;SDS011;54412;51.206;6.888;2022-07-29T04:24:22;4.30;;;1.47;;
5245;SDS011;54412;51.206;6.888;2022-07-29T04:26:48;1.90;;;1.20;;
5245;SDS011;54412;51.206;6.888;2022-07-29T04:29:14;4.60;;;1.87;;
5245;SDS011;54412;51.206;6.888;2022-07-29T04:31:40;3.13;;;1.40;;
5245;SDS011;54412;51.206;6.888;2022-07-29T04:34:06;3.67;;;1.53;;
5245;SDS011;54412;51.206;6.888;2022-07-29T04:36:32;3.70;;;1.47;;
5245;SDS011;54412;51.206;6.888;2022-07-29T04:38:58;1.80;;;1.50;;
5245;SDS011;54412;51.206;6.888;2022-07-29T04:41:25;8.57;;;1.67;;
5245;SDS011;54412;51.206;6.888;2022-07-29T04:43:52;4.23;;;2.53;;
5245;SDS011;54412;51.206;6.888;2022-07-29T04:46:18;6.33;;;1.63;;
5245;SDS011;54412;51.206;6.888;2022-07-29T04:48:47;1.60;;;1.50;;
5245;SDS011;54412;51.206;6.888;2022-07-29T04:51:16;3.50;;;1.63;;
5245;SDS011;54412;51.206;6.888;2022-07-29T04:53:42;4.17;;;1.70;;
5245;SDS011;54412;51.206;6.888;2022-07-29T04:56:07;1.97;;;1.80;;
5245;SDS011;54412;51.206;6.888;2022-07-29T04:58:36;4.77;;;1.60;;
5245;SDS011;54412;51.206;6.888;2022-07-29T05:01:02;16.73;;;2.57;;
5245;SDS011;54412;51.206;6.888;2022-07-29T05:03:28;2.80;;;2.10;;
5245;SDS011;54412;51.206;6.888;2022-07-29T05:05:55;3.57;;;2.10;;
5245;SDS011;54412;51.206;6.888;2022-07-29T05:08:20;4.30;;;1.93;;
5245;SDS011;54412;51.206;6.888;2022-07-29T05:10:46;2.73;;;1.47;;
5245;SDS011;54412;51.206;6.888;2022-07-29T05:13:12;1.87;;;1.73;;
5245;SDS011;54412;51.206;6.888;2022-07-29T05:15:37;7.43;;;2.13;;
5245;SDS011;54412;51.206;6.888;2022-07-29T05:18:03;9.00;;;2.03;;
5245;SDS011;54412;51.206;6.888;2022-07-29T05:20:30;3.30;;;2.00;;
5245;SDS011;54412;51.206;6.888;2022-07-29T05:22:58;5.63;;;2.20;;
5245;SDS011;54412;51.206;6.888;2022-07-29T05:25:25;3.67;;;2.37;;
5245;SDS011;54412;51.206;6.888;2022-07-29T05:27:52;2.60;;;1.60;;
5245;SDS011;54412;51.206;6.888;2022-07-29T05:30:19;9.10;;;1.87;;
5245;SDS011;54412;51.206;6.888;2022-07-29T05:32:45;7.70;;;1.90;;
5245;SDS011;54412;51.206;6.888;2022-07-29T05:35:11;7.23;;;1.80;;
5245;SDS011;54412;51.206;6.888;2022-07-29T05:37:37;9.20;;;1.97;;
5245;SDS011;54412;51.206;6.888;2022-07-29T05:40:03;4.70;;;1.70;;
5245;SDS011;54412;51.206;6.888;2022-07-29T05:42:30;7.20;;;1.20;;
5245;SDS011;54412;51.206;6.888;2022-07-29T05:44:56;4.80;;;1.70;;
5245;SDS011;54412;51.206;6.888;2022-07-29T05:47:22;4.20;;;1.80;;
5245;SDS011;54412;51.206;6.888;2022-07-29T05:49:50;3.47;;;1.80;;
5245;SDS011;54412;51.206;6.888;2022-07-29T05:52:16;3.70;;;1.43;;
5245;SDS011;54412;51.206;6.888;2022-07-29T05:54:42;3.17;;;1.57;;
5245;SDS011;54412;51.206;6.888;2022-07-29T05:57:08;4.20;;;1.10;;
5245;SDS011;54412;51.206;6.888;2022-07-29T05:59:40;8.10;;;1.70;;
5245;SDS011;54412;51.206;6.888;2022-07-29T06:02:06;4.47;;;1.50;;
5245;SDS011;54412;51.206;6.888;2022-07-29T06:04:32;3.50;;;1.20;;
5245;SDS011;54412;51.206;6.888;2022-07-29T06:06:58;1.90;;;1.17;;
5245;SDS011;54412;51.206;6.888;2022-07-29T06:09:24;5.70;;;1.90;;
5245;SDS011;54412;51.206;6.888;2022-07-29T06:11:50;6.40;;;1.50;;
5245;SDS011;54412;51.206;6.888;2022-07-29T06:14:17;4.87;;;1.60;;
5245;SDS011;54412;51.206;6.888;2022-07-29T06:16:43;3.40;;;1.33;;
5245;SDS011;54412;51.206;6.888;2022-07-29T06:19:09;3.40;;;1.77;;
5245;SDS011;54412;51.206;6.888;2022-07-29T06:21:35;4.20;;;1.30;;
5245;SDS011;54412;51.206;6.888;2022-07-29T06:24:00;5.33;;;2.00;;
5245;SDS011;54412;51.206;6.888;2022-07-29T06:26:26;9.83;;;1.80;;
5245;SDS011;54412;51.206;6.888;2022-07-29T06:28:52;11.10;;;1.93;;
5245;SDS011;54412;51.206;6.888;2022-07-29T06:31:18;8.27;;;1.47;;
5245;SDS011;54412;51.206;6.888;2022-07-29T06:33:44;1.40;;;1.30;;
5245;SDS011;54412;51.206;6.888;2022-07-29T06:36:09;8.23;;;1.73;;
5245;SDS011;54412;51.206;6.888;2022-07-29T06:38:35;4.10;;;1.73;;
5245;SDS011;54412;51.206;6.888;2022-07-29T06:41:03;4.00;;;1.70;;
5245;SDS011;54412;51.206;6.888;2022-07-29T06:43:31;1.40;;;1.30;;
5245;SDS011;54412;51.206;6.888;2022-07-29T06:46:01;6.20;;;1.90;;
5245;SDS011;54412;51.206;6.888;2022-07-29T06:48:30;4.63;;;1.43;;
5245;SDS011;54412;51.206;6.888;2022-07-29T06:50:57;4.67;;;1.83;;
5245;SDS011;54412;51.206;6.888;2022-07-29T06:53:24;7.03;;;2.07;;
5245;SDS011;54412;51.206;6.888;2022-07-29T06:55:51;5.03;;;2.10;;
5245;SDS011;54412;51.206;6.888;2022-07-29T06:58:17;8.50;;;1.50;;
5245;SDS011;54412;51.206;6.888;2022-07-29T07:00:45;5.17;;;2.63;;
5245;SDS011;54412;51.206;6.888;2022-07-29T07:03:12;5.07;;;1.53;;
5245;SDS011;54412;51.206;6.888;2022-07-29T07:05:39;3.67;;;1.77;;
5245;SDS011;54412;51.206;6.888;2022-07-29T07:08:05;6.63;;;2.20;;
5245;SDS011;54412;51.206;6.888;2022-07-29T07:10:32;2.27;;;1.57;;
5245;SDS011;54412;51.206;6.888;2022-07-29T07:12:58;3.30;;;2.60;;
5245;SDS011;54412;51.206;6.888;2022-07-29T07:15:24;2.37;;;1.40;;
5245;SDS011;54412;51.206;6.888;2022-07-29T07:17:50;4.60;;;2.40;;
5245;SDS011;54412;51.206;6.888;2022-07-29T07:20:16;5.60;;;2.10;;
5245;SDS011;54412;51.206;6.888;2022-07-29T07:22:43;7.03;;;2.57;;
5245;SDS011;54412;51.206;6.888;2022-07-29T07:25:09;4.00;;;1.70;;
5245;SDS011;54412;51.206;6.888;2022-07-29T07:27:39;5.07;;;2.07;;
5245;SDS011;54412;51.206;6.888;2022-07-29T07:30:05;13.07;;;2.30;;
5245;SDS011;54412;51.206;6.888;2022-07-29T07:32:32;6.13;;;2.43;;
5245;SDS011;54412;51.206;6.888;2022-07-29T07:34:59;8.10;;;1.70;;
5245;SDS011;54412;51.206;6.888;2022-07-29T07:37:25;2.80;;;2.00;;
5245;SDS011;54412;51.206;6.888;2022-07-29T07:39:51;6.00;;;1.63;;
5245;SDS011;54412;51.206;6.888;2022-07-29T07:42:18;4.37;;;3.07;;
5245;SDS011;54412;51.206;6.888;2022-07-29T07:44:44;2.60;;;2.40;;
5245;SDS011;54412;51.206;6.888;2022-07-29T07:47:10;7.13;;;2.67;;
5245;SDS011;54412;51.206;6.888;2022-07-29T07:49:37;4.03;;;2.30;;
5245;SDS011;54412;51.206;6.888;2022-07-29T07:52:03;7.70;;;2.80;;
5245;SDS011;54412;51.206;6.888;2022-07-29T07:54:29;12.17;;;2.30;;
5245;SDS011;54412;51.206;6.888;2022-07-29T07:56:56;8.63;;;2.70;;
5245;SDS011;54412;51.206;6.888;2022-07-29T07:59:22;4.37;;;2.13;;
5245;SDS011;54412;51.206;6.888;2022-07-29T08:01:49;5.97;;;2.60;;
5245;SDS011;54412;51.206;6.888;2022-07-29T08:04:15;6.23;;;2.37;;
5245;SDS011;54412;51.206;6.888;2022-07-29T08:06:41;4.43;;;2.30;;
5245;SDS011;54412;51.206;6.888;2022-07-29T08:09:07;2.53;;;2.30;;
5245;SDS011;54412;51.206;6.888;2022-07-29T08:11:33;7.47;;;2.83;;
5245;SDS011;54412;51.206;6.888;2022-07-29T08:13:58;3.50;;;2.30;;
5245;SDS011;54412;51.206;6.888;2022-07-29T08:16:26;8.43;;;3.00;;
5245;SDS011;54412;51.206;6.888;2022-07-29T08:18:52;3.70;;;2.40;;
5245;SDS011;54412;51.206;6.888;2022-07-29T08:21:22;4.83;;;1.90;;
5245;SDS011;54412;51.206;6.888;2022-07-29T08:23:49;9.60;;;2.73;;
5245;SDS011;54412;51.206;6.888;2022-07-29T08:26:18;4.23;;;2.13;;
5245;SDS011;54412;51.206;6.888;2022-07-29T08:28:45;3.70;;;2.67;;
5245;SDS011;54412;51.206;6.888;2022-07-29T08:31:14;5.30;;;2.97;;
5245;SDS011;54412;51.206;6.888;2022-07-29T08:33:40;8.60;;;2.73;;
5245;SDS011;54412;51.206;6.888;2022-07-29T08:36:06;7.13;;;2.87;;
5245;SDS011;54412;51.206;6.888;2022-07-29T08:38:32;7.67;;;2.50;;
5245;SDS011;54412;51.206;6.888;2022-07-29T08:41:00;3.37;;;2.63;;
5245;SDS011;54412;51.206;6.888;2022-07-29T08:43:27;6.23;;;3.30;;
5245;SDS011;54412;51.206;6.888;2022-07-29T08:45:54;5.67;;;2.70;;
5245;SDS011;54412;51.206;6.888;2022-07-29T08:48:20;7.50;;;2.57;;
5245;SDS011;54412;51.206;6.888;2022-07-29T08:50:48;3.07;;;2.10;;
5245;SDS011;54412;51.206;6.888;2022-07-29T08:53:20;5.50;;;2.43;;
5245;SDS011;54412;51.206;6.888;2022-07-29T08:55:49;7.73;;;2.50;;
5245;SDS011;54412;51.206;6.888;2022-07-29T08:58:15;10.30;;;2.80;;
5245;SDS011;54412;51.206;6.888;2022-07-29T09:00:46;12.93;;;2.67;;
5245;SDS011;54412;51.206;6.888;2022-07-29T09:03:20;6.80;;;2.87;;
5245;SDS011;54412;51.206;6.888;2022-07-29T09:05:50;9.70;;;2.90;;
5245;SDS011;54412;51.206;6.888;2022-07-29T09:08:17;6.83;;;2.67;;
5245;SDS011;54412;51.206;6.888;2022-07-29T09:10:44;6.37;;;2.60;;
5245;SDS011;54412;51.206;6.888;2022-07-29T09:13:10;7.10;;;2.33;;
5245;SDS011;54412;51.206;6.888;2022-07-29T09:15:36;9.77;;;2.70;;
5245;SDS011;54412;51.206;6.888;2022-07-29T09:18:01;8.17;;;2.73;;
5245;SDS011;54412;51.206;6.888;2022-07-29T09:20:27;5.17;;;2.70;;
5245;SDS011;54412;51.206;6.888;2022-07-29T09:23:25;6.73;;;2.47;;
5245;SDS011;54412;51.206;6.888;2022-07-29T09:25:51;11.10;;;2.93;;
5245;SDS011;54412;51.206;6.888;2022-07-29T09:28:17;4.37;;;2.33;;
5245;SDS011;54412;51.206;6.888;2022-07-29T09:30:50;5.33;;;2.70;;
5245;SDS011;54412;51.206;6.888;2022-07-29T09:33:22;7.53;;;2.87;;
5245;SDS011;54412;51.206;6.888;2022-07-29T09:38:33;6.00;;;2.53;;
5245;SDS011;54412;51.206;6.888;2022-07-29T09:41:02;5.20;;;2.50;;
5245;SDS011;54412;51.206;6.888;2022-07-29T09:43:29;10.70;;;2.77;;
5245;SDS011;54412;51.206;6.888;2022-07-29T09:45:55;6.23;;;2.33;;
5245;SDS011;54412;51.206;6.888;2022-07-29T09:48:34;3.23;;;2.00;;
5245;SDS011;54412;51.206;6.888;2022-07-29T09:50:59;5.70;;;2.70;;
5245;SDS011;54412;51.206;6.888;2022-07-29T09:55:58;7.23;;;2.23;;
5245;SDS011;54412;51.206;6.888;2022-07-29T09:58:23;5.43;;;2.03;;
5245;SDS011;54412;51.206;6.888;2022-07-29T10:00:50;9.07;;;2.50;;
5245;SDS011;54412;51.206;6.888;2022-07-29T10:03:17;13.67;;;2.60;;
5245;SDS011;54412;51.206;6.888;2022-07-29T10:05:44;4.93;;;2.60;;
5245;SDS011;54412;51.206;6.888;2022-07-29T10:08:11;5.47;;;2.67;;
5245;SDS011;54412;51.206;6.888;2022-07-29T10:10:41;7.93;;;2.60;;
5245;SDS011;54412;51.206;6.888;2022-07-29T10:13:14;4.33;;;3.07;;
5245;SDS011;54412;51.206;6.888;2022-07-29T10:15:40;7.17;;;2.40;;
5245;SDS011;54412;51.206;6.888;2022-07-29T10:18:10;4.77;;;2.00;;
5245;SDS011;54412;51.206;6.888;2022-07-29T10:20:38;7.63;;;2.30;;
5245;SDS011;54412;51.206;6.888;2022-07-29T10:23:04;6.93;;;2.43;;
5245;SDS011;54412;51.206;6.888;2022-07-29T10:25:31;6.20;;;2.60;;
5245;SDS011;54412;51.206;6.888;2022-07-29T10:27:57;8.70;;;3.20;;
5245;SDS011;54412;51.206;6.888;2022-07-29T10:30:24;6.17;;;3.10;;
5245;SDS011;54412;51.206;6.888;2022-07-29T10:36:24;3.80;;;2.77;;
5245;SDS011;54412;51.206;6.888;2022-07-29T10:42:27;11.60;;;2.83;;
5245;SDS011;54412;51.206;6.888;2022-07-29T10:44:54;10.87;;;3.20;;
5245;SDS011;54412;51.206;6.888;2022-07-29T10:47:22;7.00;;;2.27;;
5245;SDS011;54412;51.206;6.888;2022-07-29T10:49:59;5.30;;;3.27;;
5245;SDS011;54412;51.206;6.888;2022-07-29T10:52:51;7.40;;;2.43;;
5245;SDS011;54412;51.206;6.888;2022-07-29T10:55:32;5.20;;;2.80;;
5245;SDS011;54412;51.206;6.888;2022-07-29T11:00:44;6.67;;;2.30;;
5245;SDS011;54412;51.206;6.888;2022-07-29T11:06:06;5.03;;;2.90;;
5245;SDS011;54412;51.206;6.888;2022-07-29T11:08:32;8.30;;;3.40;;
5245;SDS011;54412;51.206;6.888;2022-07-29T11:13:52;10.27;;;3.40;;
5245;SDS011;54412;51.206;6.888;2022-07-29T11:16:20;3.47;;;2.90;;
5245;SDS011;54412;51.206;6.888;2022-07-29T11:21:38;34.87;;;10.23;;
5245;SDS011;54412;51.206;6.888;2022-07-29T11:24:11;23.73;;;6.23;;
5245;SDS011;54412;51.206;6.888;2022-07-29T11:26:41;10.77;;;3.93;;
5245;SDS011;54412;51.206;6.888;2022-07-29T11:29:16;15.90;;;4.80;;
5245;SDS011;54412;51.206;6.888;2022-07-29T11:31:50;11.43;;;4.87;;
5245;SDS011;54412;51.206;6.888;2022-07-29T11:34:23;6.70;;;3.20;;
5245;SDS011;54412;51.206;6.888;2022-07-29T11:39:33;9.30;;;3.23;;
5245;SDS011;54412;51.206;6.888;2022-07-29T11:47:48;10.93;;;3.50;;
5245;SDS011;54412;51.206;6.888;2022-07-29T11:50:31;4.23;;;2.20;;
5245;SDS011;54412;51.206;6.888;2022-07-29T11:53:02;5.30;;;2.63;;
5245;SDS011;54412;51.206;6.888;2022-07-29T11:55:37;6.63;;;2.40;;
5245;SDS011;54412;51.206;6.888;2022-07-29T11:58:04;4.10;;;2.07;;
5245;SDS011;54412;51.206;6.888;2022-07-29T12:00:32;4.20;;;2.30;;
5245;SDS011;54412;51.206;6.888;2022-07-29T12:03:04;5.10;;;2.20;;
5245;SDS011;54412;51.206;6.888;2022-07-29T12:05:42;2.80;;;1.77;;
5245;SDS011;54412;51.206;6.888;2022-07-29T12:10:44;6.37;;;2.83;;
5245;SDS011;54412;51.206;6.888;2022-07-29T12:13:12;8.90;;;2.33;;
5245;SDS011;54412;51.206;6.888;2022-07-29T12:15:40;9.37;;;2.70;;
5245;SDS011;54412;51.206;6.888;2022-07-29T12:18:16;3.33;;;2.83;;
5245;SDS011;54412;51.206;6.888;2022-07-29T12:20:45;8.70;;;2.30;;
5245;SDS011;54412;51.206;6.888;2022-07-29T12:23:13;4.27;;;2.40;;
5245;SDS011;54412;51.206;6.888;2022-07-29T12:25:41;6.60;;;2.90;;
5245;SDS011;54412;51.206;6.888;2022-07-29T12:28:09;3.70;;;2.33;;
5245;SDS011;54412;51.206;6.888;2022-07-29T12:30:45;5.43;;;2.50;;
5245;SDS011;54412;51.206;6.888;2022-07-29T12:33:23;3.93;;;2.30;;
5245;SDS011;54412;51.206;6.888;2022-07-29T12:35:59;9.10;;;2.43;;
5245;SDS011;54412;51.206;6.888;2022-07-29T12:38:26;13.47;;;2.40;;
5245;SDS011;54412;51.206;6.888;2022-07-29T12:40:53;2.40;;;2.00;;
5245;SDS011;54412;51.206;6.888;2022-07-29T12:43:20;2.80;;;2.27;;
5245;SDS011;54412;51.206;6.888;2022-07-29T12:45:49;3.77;;;2.37;;
5245;SDS011;54412;51.206;6.888;2022-07-29T12:48:36;5.10;;;2.70;;
5245;SDS011;54412;51.206;6.888;2022-07-29T12:51:05;6.80;;;2.10;;
5245;SDS011;54412;51.206;6.888;2022-07-29T12:53:33;1.97;;;1.83;;
5245;SDS011;54412;51.206;6.888;2022-07-29T12:56:00;6.17;;;2.57;;
5245;SDS011;54412;51.206;6.888;2022-07-29T13:09:04;9.07;;;2.67;;
5245;SDS011;54412;51.206;6.888;2022-07-29T13:11:34;6.20;;;1.97;;
5245;SDS011;54412;51.206;6.888;2022-07-29T13:14:07;5.00;;;2.10;;
5245;SDS011;54412;51.206;6.888;2022-07-29T13:16:59;5.23;;;2.70;;
5245;SDS011;54412;51.206;6.888;2022-07-29T13:22:03;8.30;;;2.60;;
5245;SDS011;54412;51.206;6.888;2022-07-29T13:24:29;6.00;;;2.63;;
5245;SDS011;54412;51.206;6.888;2022-07-29T13:26:55;4.10;;;2.30;;
5245;SDS011;54412;51.206;6.888;2022-07-29T13:29:21;6.43;;;2.30;;
5245;SDS011;54412;51.206;6.888;2022-07-29T13:31:46;5.10;;;2.63;;
5245;SDS011;54412;51.206;6.888;2022-07-29T13:34:12;4.10;;;2.30;;
5245;SDS011;54412;51.206;6.888;2022-07-29T13:36:38;13.33;;;2.50;;
5245;SDS011;54412;51.206;6.888;2022-07-29T13:39:03;2.77;;;2.40;;
5245;SDS011;54412;51.206;6.888;2022-07-29T13:41:29;5.10;;;2.30;;
5245;SDS011;54412;51.206;6.888;2022-07-29T13:43:55;9.27;;;2.97;;
5245;SDS011;54412;51.206;6.888;2022-07-29T13:46:21;8.73;;;2.93;;
5245;SDS011;54412;51.206;6.888;2022-07-29T13:48:46;9.43;;;2.80;;
5245;SDS011;54412;51.206;6.888;2022-07-29T13:51:12;20.27;;;3.33;;
5245;SDS011;54412;51.206;6.888;2022-07-29T13:53:38;10.23;;;2.70;;
5245;SDS011;54412;51.206;6.888;2022-07-29T13:56:04;7.17;;;3.10;;
5245;SDS011;54412;51.206;6.888;2022-07-29T13:58:32;4.50;;;2.90;;
5245;SDS011;54412;51.206;6.888;2022-07-29T14:00:58;6.17;;;2.77;;
5245;SDS011;54412;51.206;6.888;2022-07-29T14:03:25;9.40;;;3.00;;
5245;SDS011;54412;51.206;6.888;2022-07-29T14:05:51;5.60;;;2.40;;
5245;SDS011;54412;51.206;6.888;2022-07-29T14:08:17;8.40;;;2.57;;
5245;SDS011;54412;51.206;6.888;2022-07-29T14:10:43;7.10;;;2.87;;
5245;SDS011;54412;51.206;6.888;2022-07-29T14:13:08;7.40;;;2.83;;
5245;SDS011;54412;51.206;6.888;2022-07-29T14:15:34;11.77;;;2.80;;
5245;SDS011;54412;51.206;6.888;2022-07-29T14:18:00;5.13;;;3.10;;
5245;SDS011;54412;51.206;6.888;2022-07-29T14:20:26;4.43;;;2.37;;
5245;SDS011;54412;51.206;6.888;2022-07-29T14:22:54;10.00;;;2.80;;
5245;SDS011;54412;51.206;6.888;2022-07-29T14:25:21;8.30;;;3.33;;
5245;SDS011;54412;51.206;6.888;2022-07-29T14:27:47;11.93;;;3.30;;
5245;SDS011;54412;51.206;6.888;2022-07-29T14:30:13;3.17;;;2.57;;
5245;SDS011;54412;51.206;6.888;2022-07-29T14:32:39;6.43;;;2.80;;
5245;SDS011;54412;51.206;6.888;2022-07-29T14:35:05;9.40;;;3.20;;
5245;SDS011;54412;51.206;6.888;2022-07-29T14:37:33;5.30;;;2.47;;
5245;SDS011;54412;51.206;6.888;2022-07-29T14:40:00;8.83;;;2.60;;
5245;SDS011;54412;51.206;6.888;2022-07-29T14:42:28;6.57;;;2.70;;
5245;SDS011;54412;51.206;6.888;2022-07-29T14:44:56;9.73;;;3.03;;
5245;SDS011;54412;51.206;6.888;2022-07-29T14:47:21;14.13;;;3.03;;
5245;SDS011;54412;51.206;6.888;2022-07-29T14:49:48;6.80;;;2.70;;
5245;SDS011;54412;51.206;6.888;2022-07-29T14:52:14;4.70;;;2.50;;
5245;SDS011;54412;51.206;6.888;2022-07-29T14:54:40;5.47;;;3.03;;
5245;SDS011;54412;51.206;6.888;2022-07-29T14:57:06;3.40;;;2.23;;
5245;SDS011;54412;51.206;6.888;2022-07-29T14:59:31;11.20;;;2.77;;
5245;SDS011;54412;51.206;6.888;2022-07-29T15:01:57;9.30;;;2.67;;
5245;SDS011;54412;51.206;6.888;2022-07-29T15:04:23;9.00;;;3.43;;
5245;SDS011;54412;51.206;6.888;2022-07-29T15:06:49;6.60;;;2.90;;
5245;SDS011;54412;51.206;6.888;2022-07-29T15:09:15;8.83;;;3.00;;
5245;SDS011;54412;51.206;6.888;2022-07-29T15:11:40;5.67;;;2.53;;
5245;SDS011;54412;51.206;6.888;2022-07-29T15:14:06;4.07;;;2.63;;
5245;SDS011;54412;51.206;6.888;2022-07-29T15:16:34;4.87;;;3.00;;
5245;SDS011;54412;51.206;6.888;2022-07-29T15:19:01;5.33;;;2.20;;
5245;SDS011;54412;51.206;6.888;2022-07-29T15:21:28;4.70;;;2.27;;
5245;SDS011;54412;51.206;6.888;2022-07-29T15:23:54;4.03;;;2.30;;
5245;SDS011;54412;51.206;6.888;2022-07-29T15:26:20;4.70;;;2.13;;
5245;SDS011;54412;51.206;6.888;2022-07-29T15:28:45;8.30;;;2.90;;
5245;SDS011;54412;51.206;6.888;2022-07-29T15:31:11;2.87;;;2.60;;
5245;SDS011;54412;51.206;6.888;2022-07-29T15:33:37;6.67;;;2.90;;
5245;SDS011;54412;51.206;6.888;2022-07-29T15:36:03;10.90;;;2.70;;
5245;SDS011;54412;51.206;6.888;2022-07-29T15:38:29;10.63;;;2.97;;
5245;SDS011;54412;51.206;6.888;2022-07-29T15:40:55;2.80;;;2.00;;
5245;SDS011;54412;51.206;6.888;2022-07-29T15:43:21;6.10;;;2.77;;
5245;SDS011;54412;51.206;6.888;2022-07-29T15:45:47;10.20;;;2.97;;
5245;SDS011;54412;51.206;6.888;2022-07-29T15:48:32;5.30;;;2.50;;
5245;SDS011;54412;51.206;6.888;2022-07-29T15:51:02;8.63;;;2.27;;
5245;SDS011;54412;51.206;6.888;2022-07-29T15:53:28;5.40;;;2.57;;
5245;SDS011;54412;51.206;6.888;2022-07-29T15:55:54;5.37;;;2.80;;
5245;SDS011;54412;51.206;6.888;2022-07-29T15:58:20;6.67;;;2.40;;
5245;SDS011;54412;51.206;6.888;2022-07-29T16:00:46;4.57;;;2.50;;
5245;SDS011;54412;51.206;6.888;2022-07-29T16:03:12;3.97;;;2.77;;